createdAt,value
2017-09-09T00:02:08.131Z,1.97
2017-09-09T00:04:36.453Z,1.90
2017-09-09T00:07:04.794Z,1.70
2017-09-09T00:09:33.131Z,1.80
2017-09-09T00:12:01.464Z,2.00
2017-09-09T00:14:29.805Z,2.13
2017-09-09T00:16:58.280Z,1.90
2017-09-09T00:19:26.619Z,1.93
2017-09-09T00:21:54.958Z,1.80
2017-09-09T00:24:23.303Z,1.73
2017-09-09T00:26:51.708Z,1.80
2017-09-09T00:29:20.148Z,1.40
2017-09-09T00:31:48.487Z,1.50
2017-09-09T00:34:17.002Z,1.63
2017-09-09T00:36:45.355Z,1.90
2017-09-09T00:39:13.695Z,1.80
2017-09-09T00:41:42.036Z,1.60
2017-09-09T00:44:10.380Z,1.43
2017-09-09T00:46:38.769Z,1.30
2017-09-09T00:49:07.103Z,1.70
2017-09-09T00:51:35.478Z,1.70
2017-09-09T00:54:03.808Z,1.67
2017-09-09T00:56:32.163Z,1.50
2017-09-09T00:59:00.504Z,1.80
2017-09-09T01:01:28.842Z,1.40
2017-09-09T01:03:57.184Z,1.83
2017-09-09T01:06:25.522Z,1.80
2017-09-09T01:08:53.859Z,2.33
2017-09-09T01:11:22.198Z,3.17
2017-09-09T01:13:50.602Z,2.77
2017-09-09T01:16:18.934Z,2.37
2017-09-09T01:18:47.305Z,3.57
2017-09-09T01:21:15.651Z,3.30
2017-09-09T01:23:43.996Z,3.17
2017-09-09T01:26:12.331Z,3.57
2017-09-09T01:28:40.714Z,3.73
2017-09-09T01:31:09.063Z,3.73
2017-09-09T01:33:37.407Z,4.10
2017-09-09T01:36:05.778Z,3.93
2017-09-09T01:38:34.133Z,3.53
2017-09-09T01:41:02.491Z,3.93
2017-09-09T01:43:30.842Z,3.47
2017-09-09T01:45:59.179Z,3.47
2017-09-09T01:48:27.519Z,3.40
2017-09-09T01:50:55.869Z,2.50
2017-09-09T01:53:24.257Z,3.23
2017-09-09T01:55:52.599Z,3.07
2017-09-09T01:58:20.939Z,3.20
2017-09-09T02:00:49.309Z,3.30
2017-09-09T02:03:17.646Z,3.30
2017-09-09T02:05:45.992Z,2.90
2017-09-09T02:08:14.352Z,2.83
2017-09-09T02:10:42.698Z,2.50
2017-09-09T02:13:11.741Z,2.77
2017-09-09T02:15:40.075Z,2.23
2017-09-09T02:18:08.410Z,2.10
2017-09-09T02:20:36.886Z,1.83
2017-09-09T02:23:05.224Z,2.10
2017-09-09T02:25:33.565Z,1.77
2017-09-09T02:28:01.905Z,1.80
2017-09-09T02:30:30.314Z,2.60
2017-09-09T02:32:58.657Z,2.07
2017-09-09T02:35:27.010Z,2.00
2017-09-09T02:37:55.348Z,1.83
2017-09-09T02:40:23.697Z,2.43
2017-09-09T02:42:52.076Z,1.90
2017-09-09T02:45:20.439Z,2.60
2017-09-09T02:47:48.821Z,3.70
2017-09-09T02:50:17.163Z,2.50
2017-09-09T02:52:45.513Z,2.60
2017-09-09T02:55:13.876Z,2.47
2017-09-09T02:57:42.223Z,2.27
2017-09-09T03:00:10.624Z,2.10
2017-09-09T03:02:38.963Z,2.13
2017-09-09T03:05:07.731Z,1.70
2017-09-09T03:07:36.073Z,2.13
2017-09-09T03:10:04.419Z,2.10
2017-09-09T03:12:32.907Z,1.90
2017-09-09T03:15:01.251Z,1.60
2017-09-09T03:17:29.592Z,1.53
2017-09-09T03:19:57.927Z,1.63
2017-09-09T03:22:26.269Z,2.30
2017-09-09T03:24:54.612Z,1.07
2017-09-09T03:27:22.963Z,1.57
2017-09-09T03:29:51.343Z,0.87
2017-09-09T03:32:19.704Z,1.40
2017-09-09T03:34:48.047Z,1.20
2017-09-09T03:37:16.414Z,1.07
2017-09-09T03:39:44.755Z,1.10
2017-09-09T03:42:13.124Z,1.10
2017-09-09T03:44:41.470Z,1.07
2017-09-09T03:47:09.818Z,1.10
2017-09-09T03:49:38.182Z,1.20
2017-09-09T03:52:06.528Z,0.90
2017-09-09T03:54:34.880Z,0.90
2017-09-09T03:57:03.216Z,0.80
2017-09-09T03:59:31.556Z,0.90
2017-09-09T04:01:59.903Z,1.00
2017-09-09T04:04:28.253Z,1.00
2017-09-09T04:06:56.587Z,0.97
2017-09-09T04:09:24.928Z,1.30
2017-09-09T04:11:53.278Z,1.10
2017-09-09T04:14:21.610Z,1.40
2017-09-09T04:16:49.954Z,0.83
2017-09-09T04:19:18.303Z,1.07
2017-09-09T04:21:46.679Z,0.97
2017-09-09T04:24:15.015Z,1.07
2017-09-09T04:26:43.385Z,0.90
2017-09-09T04:29:11.732Z,0.87
2017-09-09T04:31:40.079Z,1.10
2017-09-09T04:34:08.418Z,0.83
2017-09-09T04:36:36.759Z,1.20
2017-09-09T04:39:05.105Z,1.20
2017-09-09T04:41:33.448Z,1.30
2017-09-09T04:44:01.911Z,1.60
2017-09-09T04:46:30.257Z,1.47
2017-09-09T04:48:58.595Z,1.40
2017-09-09T04:51:26.947Z,1.40
2017-09-09T04:53:55.287Z,1.20
2017-09-09T04:56:23.635Z,1.20
2017-09-09T04:58:51.976Z,1.40
2017-09-09T05:01:20.355Z,1.33
2017-09-09T05:03:48.703Z,1.20
2017-09-09T05:06:17.053Z,1.30
2017-09-09T05:08:45.451Z,1.30
2017-09-09T05:11:13.809Z,1.20
2017-09-09T05:13:42.310Z,1.40
2017-09-09T05:16:10.645Z,1.10
2017-09-09T05:18:38.982Z,1.00
2017-09-09T05:21:07.326Z,0.90
2017-09-09T05:23:35.708Z,1.03
2017-09-09T05:26:04.048Z,1.00
2017-09-09T05:28:32.392Z,1.00
2017-09-09T05:31:00.723Z,1.10
2017-09-09T05:33:29.075Z,1.00
2017-09-09T05:35:57.446Z,1.10
2017-09-09T05:38:25.779Z,1.50
2017-09-09T05:40:54.127Z,1.47
2017-09-09T05:43:22.467Z,1.60
2017-09-09T05:45:50.832Z,1.57
2017-09-09T05:48:19.170Z,1.83
2017-09-09T05:50:47.511Z,1.47
2017-09-09T05:53:15.891Z,1.40
2017-09-09T05:55:44.256Z,1.60
2017-09-09T05:58:12.595Z,1.43
2017-09-09T06:00:40.931Z,1.30
2017-09-09T06:03:09.562Z,1.40
2017-09-09T06:05:37.922Z,1.30
2017-09-09T06:08:06.279Z,1.37
2017-09-09T06:10:34.615Z,1.10
2017-09-09T06:13:03.307Z,1.30
2017-09-09T06:15:31.692Z,0.90
2017-09-09T06:18:00.033Z,1.17
2017-09-09T06:20:28.384Z,0.90
2017-09-09T06:22:56.725Z,0.70
2017-09-09T06:25:25.067Z,0.90
2017-09-09T06:27:53.416Z,0.80
2017-09-09T06:30:21.763Z,0.90
2017-09-09T06:32:50.108Z,0.87
2017-09-09T06:35:18.451Z,0.70
2017-09-09T06:37:46.798Z,0.70
2017-09-09T06:40:15.200Z,0.57
2017-09-09T06:42:43.534Z,0.40
2017-09-09T06:45:11.872Z,0.50
2017-09-09T06:47:40.209Z,0.50
2017-09-09T06:50:08.550Z,0.40
2017-09-09T06:52:36.891Z,0.50
2017-09-09T06:55:05.235Z,0.50
2017-09-09T06:57:33.562Z,0.40
2017-09-09T07:00:01.938Z,0.40
2017-09-09T07:02:30.279Z,0.40
2017-09-09T07:04:58.642Z,0.40
2017-09-09T07:07:26.980Z,0.33
2017-09-09T07:09:55.353Z,0.43
2017-09-09T07:12:23.699Z,0.30
2017-09-09T07:14:52.041Z,0.40
2017-09-09T07:17:20.376Z,0.30
2017-09-09T07:19:48.724Z,0.30
2017-09-09T07:22:17.084Z,0.50
2017-09-09T07:24:45.480Z,0.30
2017-09-09T07:27:13.810Z,0.30
2017-09-09T07:29:42.155Z,0.40
2017-09-09T07:32:10.494Z,0.33
2017-09-09T07:34:38.830Z,0.30
2017-09-09T07:37:07.173Z,0.30
2017-09-09T07:39:35.503Z,0.37
2017-09-09T07:42:04.358Z,0.30
2017-09-09T07:44:32.759Z,0.30
2017-09-09T07:47:01.101Z,0.30
2017-09-09T07:49:29.444Z,0.40
2017-09-09T07:51:57.790Z,0.40
2017-09-09T07:54:26.131Z,0.30
2017-09-09T07:56:54.503Z,0.30
2017-09-09T07:59:26.683Z,0.50
2017-09-09T08:01:55.029Z,0.40
2017-09-09T08:04:23.366Z,0.53
2017-09-09T08:06:51.725Z,0.40
2017-09-09T08:09:20.090Z,0.40
2017-09-09T08:11:48.434Z,0.70
2017-09-09T08:14:16.774Z,0.53
2017-09-09T08:16:45.162Z,0.40
2017-09-09T08:19:14.058Z,0.47
2017-09-09T08:21:42.448Z,0.30
2017-09-09T08:24:10.795Z,0.50
2017-09-09T08:26:39.159Z,0.60
2017-09-09T08:29:07.519Z,0.60
2017-09-09T08:31:35.895Z,0.70
2017-09-09T08:34:04.251Z,0.50
2017-09-09T08:36:32.594Z,0.77
2017-09-09T08:39:00.951Z,0.47
2017-09-09T08:41:29.320Z,0.50
2017-09-09T08:43:57.658Z,0.60
2017-09-09T08:46:25.996Z,0.40
2017-09-09T08:48:54.363Z,0.57
2017-09-09T08:51:22.727Z,0.67
2017-09-09T08:53:51.072Z,0.40
2017-09-09T08:56:19.435Z,0.40
2017-09-09T08:58:47.779Z,0.60
2017-09-09T09:01:16.138Z,0.50
2017-09-09T09:03:44.476Z,0.83
2017-09-09T09:06:12.850Z,0.70
2017-09-09T09:08:41.199Z,0.50
2017-09-09T09:11:09.539Z,0.60
2017-09-09T09:13:37.878Z,0.70
2017-09-09T09:16:07.051Z,0.70
2017-09-09T09:18:35.491Z,0.57
2017-09-09T09:21:03.858Z,0.73
2017-09-09T09:23:32.197Z,0.80
2017-09-09T09:26:00.561Z,0.70
2017-09-09T09:28:28.942Z,1.03
2017-09-09T09:30:57.318Z,0.70
2017-09-09T09:33:25.787Z,0.90
2017-09-09T09:35:54.169Z,0.93
2017-09-09T09:38:22.503Z,0.97
2017-09-09T09:40:50.842Z,1.03
2017-09-09T09:43:19.199Z,0.90
2017-09-09T09:45:47.579Z,1.00
2017-09-09T09:48:15.915Z,1.00
2017-09-09T09:50:44.263Z,1.07
2017-09-09T09:53:12.610Z,1.13
2017-09-09T09:55:40.965Z,0.90
2017-09-09T09:58:09.343Z,0.83
2017-09-09T10:00:37.688Z,0.60
2017-09-09T10:03:06.044Z,0.93
2017-09-09T10:05:34.519Z,0.93
2017-09-09T10:08:02.882Z,0.80
2017-09-09T10:10:31.252Z,0.90
2017-09-09T10:12:59.627Z,1.00
2017-09-09T10:15:27.975Z,1.23
2017-09-09T10:17:56.355Z,0.77
2017-09-09T10:20:24.689Z,0.83
2017-09-09T10:22:53.573Z,0.87
2017-09-09T10:25:27.286Z,0.97
2017-09-09T10:27:58.431Z,0.73
2017-09-09T10:30:27.527Z,0.90
2017-09-09T10:32:56.449Z,0.70
2017-09-09T10:35:25.474Z,0.93
2017-09-09T10:37:54.648Z,0.90
2017-09-09T10:40:23.367Z,0.80
2017-09-09T10:42:52.925Z,0.80
2017-09-09T10:45:21.825Z,0.60
2017-09-09T10:47:50.310Z,1.10
2017-09-09T10:50:18.738Z,0.77
2017-09-09T10:52:47.117Z,0.87
2017-09-09T10:55:15.459Z,0.70
2017-09-09T10:57:43.795Z,0.70
2017-09-09T11:00:12.137Z,0.57
2017-09-09T11:02:40.492Z,0.70
2017-09-09T11:05:08.835Z,0.83
2017-09-09T11:07:43.171Z,0.70
2017-09-09T11:10:11.502Z,0.60
2017-09-09T11:12:39.847Z,0.70
2017-09-09T11:15:08.191Z,0.70
2017-09-09T11:17:36.579Z,0.60
2017-09-09T11:20:04.915Z,0.77
2017-09-09T11:22:33.251Z,0.90
2017-09-09T11:25:01.598Z,0.60
2017-09-09T11:27:29.934Z,0.73
2017-09-09T11:29:58.279Z,0.90
2017-09-09T11:32:26.633Z,0.57
2017-09-09T11:34:54.983Z,0.90
2017-09-09T11:37:23.311Z,0.80
2017-09-09T11:39:51.707Z,0.80
2017-09-09T11:42:20.042Z,0.80
2017-09-09T11:44:48.381Z,0.87
2017-09-09T11:47:16.734Z,1.00
2017-09-09T11:49:45.063Z,1.27
2017-09-09T11:52:13.439Z,1.10
2017-09-09T11:54:41.775Z,1.17
2017-09-09T11:57:10.314Z,1.13
2017-09-09T11:59:38.655Z,0.80
2017-09-09T12:02:06.999Z,0.80
2017-09-09T12:04:35.912Z,1.03
2017-09-09T12:07:04.243Z,0.80
2017-09-09T12:09:32.597Z,1.10
2017-09-09T12:12:00.941Z,0.70
2017-09-09T12:14:29.299Z,0.50
2017-09-09T12:16:57.663Z,0.40
2017-09-09T12:19:26.003Z,0.60
2017-09-09T12:21:54.356Z,0.50
2017-09-09T12:24:22.688Z,0.70
2017-09-09T12:26:51.022Z,0.80
2017-09-09T12:29:19.395Z,0.70
2017-09-09T12:31:47.736Z,0.80
2017-09-09T12:34:16.082Z,0.87
2017-09-09T12:36:44.458Z,0.87
2017-09-09T12:39:12.840Z,0.90
2017-09-09T12:41:41.192Z,1.10
2017-09-09T12:44:09.536Z,1.00
2017-09-09T12:46:37.928Z,1.10
2017-09-09T12:49:06.272Z,1.10
2017-09-09T12:51:34.614Z,1.13
2017-09-09T12:54:03.064Z,1.30
2017-09-09T12:56:31.408Z,1.70
2017-09-09T12:58:59.753Z,1.33
2017-09-09T13:01:28.098Z,1.97
2017-09-09T13:03:56.487Z,1.60
2017-09-09T13:08:59.405Z,1.80
2017-09-09T13:11:27.751Z,2.00
2017-09-09T13:13:56.150Z,2.10
2017-09-09T13:16:24.475Z,1.80
2017-09-09T13:18:52.822Z,2.00
2017-09-09T13:21:21.288Z,1.70
2017-09-09T13:23:49.631Z,1.50
2017-09-09T13:26:17.967Z,1.80
2017-09-09T13:28:46.306Z,1.20
2017-09-09T13:31:14.646Z,1.13
2017-09-09T13:33:42.998Z,0.70
2017-09-09T13:36:11.347Z,0.80
2017-09-09T13:38:39.693Z,0.83
2017-09-09T13:41:08.036Z,0.87
2017-09-09T13:43:36.402Z,0.53
2017-09-09T13:46:04.750Z,0.67
2017-09-09T13:48:33.084Z,1.10
2017-09-09T13:51:01.420Z,0.90
2017-09-09T13:53:29.766Z,1.00
2017-09-09T13:55:58.122Z,1.13
2017-09-09T13:58:26.470Z,1.10
2017-09-09T14:00:54.803Z,1.20
2017-09-09T14:03:23.152Z,1.30
2017-09-09T14:05:51.509Z,1.10
2017-09-09T14:08:19.871Z,1.10
2017-09-09T14:10:48.253Z,1.30
2017-09-09T14:13:16.618Z,1.53
2017-09-09T14:15:44.962Z,1.30
2017-09-09T14:18:13.300Z,1.60
2017-09-09T14:20:41.636Z,1.60
2017-09-09T14:23:09.973Z,1.60
2017-09-09T14:25:38.324Z,1.20
2017-09-09T14:28:06.679Z,1.30
2017-09-09T14:30:35.023Z,1.27
2017-09-09T14:33:03.607Z,1.53
2017-09-09T14:35:31.971Z,1.80
2017-09-09T14:38:01.192Z,2.00
2017-09-09T14:40:29.522Z,2.03
2017-09-09T14:42:57.870Z,1.70
2017-09-09T14:45:26.218Z,1.70
2017-09-09T14:47:54.644Z,2.00
2017-09-09T14:50:22.999Z,1.50
2017-09-09T14:52:51.347Z,2.07
2017-09-09T14:55:19.689Z,1.67
2017-09-09T14:57:48.132Z,2.00
2017-09-09T15:00:16.500Z,4.30
2017-09-09T15:02:44.844Z,3.53
2017-09-09T15:05:13.192Z,1.40
2017-09-09T15:07:41.540Z,1.47
2017-09-09T15:10:09.886Z,1.13
2017-09-09T15:12:38.241Z,1.20
2017-09-09T15:15:06.619Z,1.10
2017-09-09T15:17:34.962Z,1.33
2017-09-09T15:20:03.318Z,1.47
2017-09-09T15:22:31.655Z,1.40
2017-09-09T15:25:00.004Z,1.37
2017-09-09T15:27:28.522Z,1.97
2017-09-09T15:29:56.863Z,1.93
2017-09-09T15:32:25.245Z,1.80
2017-09-09T15:34:53.579Z,1.40
2017-09-09T15:37:21.945Z,1.47
2017-09-09T15:39:50.784Z,1.50
2017-09-09T15:42:19.119Z,1.57
2017-09-09T15:44:47.459Z,1.83
2017-09-09T15:47:15.815Z,1.30
2017-09-09T15:49:44.164Z,29.20
2017-09-09T15:52:12.519Z,4.07
2017-09-09T15:54:40.852Z,1.50
2017-09-09T15:57:09.207Z,1.73
2017-09-09T15:59:37.555Z,1.50
2017-09-09T16:02:05.891Z,1.67
2017-09-09T16:04:34.575Z,1.33
2017-09-09T16:07:02.916Z,1.47
2017-09-09T16:09:31.269Z,1.13
2017-09-09T16:11:59.609Z,1.50
2017-09-09T16:14:27.980Z,1.60
2017-09-09T16:16:57.069Z,1.20
2017-09-09T16:19:26.690Z,0.87
2017-09-09T16:21:55.039Z,1.10
2017-09-09T16:24:23.391Z,1.10
2017-09-09T16:26:51.735Z,1.07
2017-09-09T16:29:20.085Z,1.10
2017-09-09T16:31:48.567Z,1.27
2017-09-09T16:34:16.909Z,1.33
2017-09-09T16:36:45.254Z,1.70
2017-09-09T16:39:13.586Z,1.13
2017-09-09T16:41:41.959Z,1.30
2017-09-09T16:44:10.330Z,1.50
2017-09-09T16:46:38.668Z,1.40
2017-09-09T16:49:07.012Z,1.40
2017-09-09T16:51:35.364Z,1.40
2017-09-09T16:54:03.731Z,1.60
2017-09-09T16:56:32.087Z,1.40
2017-09-09T16:59:00.421Z,1.53
2017-09-09T17:01:28.758Z,1.13
2017-09-09T17:03:57.124Z,1.30
2017-09-09T17:06:25.496Z,1.03
2017-09-09T17:08:53.819Z,1.50
2017-09-09T17:11:22.168Z,1.70
2017-09-09T17:13:50.521Z,1.50
2017-09-09T17:16:18.864Z,1.87
2017-09-09T17:18:47.212Z,2.10
2017-09-09T17:21:15.554Z,2.07
2017-09-09T17:23:43.899Z,1.60
2017-09-09T17:26:12.239Z,1.57
2017-09-09T17:28:40.579Z,2.30
2017-09-09T17:31:08.917Z,1.43
2017-09-09T17:33:37.259Z,2.00
2017-09-09T17:36:05.594Z,1.57
2017-09-09T17:38:33.982Z,2.07
2017-09-09T17:41:03.001Z,1.50
2017-09-09T17:43:31.339Z,1.90
2017-09-09T17:45:59.683Z,1.70
2017-09-09T17:48:28.022Z,1.20
2017-09-09T17:50:56.361Z,1.80
2017-09-09T17:53:24.715Z,1.73
2017-09-09T18:40:50.828Z,2.87
2017-09-09T18:43:19.172Z,2.63
2017-09-09T18:45:47.651Z,3.20
2017-09-09T18:48:15.991Z,3.40
2017-09-09T18:50:44.333Z,3.73
2017-09-09T19:32:11.745Z,4.20
2017-09-09T19:34:44.088Z,4.10
2017-09-09T19:37:12.426Z,3.43
2017-09-09T19:39:40.781Z,4.70
2017-09-09T19:42:09.124Z,3.27
2017-09-09T19:44:37.487Z,3.90
2017-09-09T19:47:05.922Z,3.87
2017-09-09T19:49:34.305Z,3.60
2017-09-09T19:52:02.626Z,3.50
2017-09-09T19:54:30.976Z,3.67
2017-09-09T19:56:59.450Z,4.13
2017-09-09T19:59:27.800Z,3.87
2017-09-09T20:01:56.127Z,4.23
2017-09-09T20:04:24.481Z,4.13
2017-09-09T20:06:52.821Z,3.93
2017-09-09T20:09:21.189Z,5.40
2017-09-09T20:11:49.523Z,5.03
2017-09-09T20:14:17.936Z,5.43
2017-09-09T20:16:46.275Z,5.90
2017-09-09T20:19:14.616Z,5.40
2017-09-09T20:21:42.961Z,5.63
2017-09-09T20:24:11.313Z,6.07
2017-09-09T20:26:39.656Z,5.00
2017-09-09T20:29:08.132Z,5.10
2017-09-09T20:31:36.472Z,6.03
2017-09-09T20:34:04.819Z,5.50
2017-09-09T20:36:33.160Z,5.80
2017-09-09T20:39:01.516Z,5.60
2017-09-09T20:41:29.895Z,6.47
2017-09-09T20:43:58.497Z,6.03
2017-09-09T20:46:26.877Z,6.87
2017-09-09T20:48:55.217Z,6.33
2017-09-09T20:51:23.873Z,6.40
2017-09-09T20:53:52.235Z,8.00
2017-09-09T20:56:20.615Z,6.77
2017-09-09T20:58:48.965Z,7.47
2017-09-09T21:01:17.392Z,6.73
2017-09-09T21:03:45.747Z,7.90
2017-09-09T21:06:14.101Z,8.03
2017-09-09T21:08:42.452Z,7.47
2017-09-09T21:11:11.273Z,6.80
2017-09-09T21:13:39.621Z,6.20
2017-09-09T21:16:07.975Z,6.30
2017-09-09T21:18:36.338Z,6.47
2017-09-09T21:21:04.700Z,6.20
2017-09-09T21:23:33.086Z,5.47
2017-09-09T21:26:01.420Z,5.23
2017-09-09T21:28:29.763Z,5.10
2017-09-09T21:30:58.147Z,5.27
2017-09-09T21:33:26.502Z,4.67
2017-09-09T21:35:54.850Z,3.87
2017-09-09T21:38:23.196Z,4.60
2017-09-09T21:40:51.533Z,4.17
2017-09-09T21:43:19.890Z,5.00
2017-09-09T21:45:48.224Z,4.80
2017-09-09T21:48:16.599Z,4.23
2017-09-09T21:50:44.940Z,3.93
2017-09-09T21:53:13.317Z,3.73
2017-09-09T21:55:41.654Z,3.00
2017-09-09T21:58:10.028Z,3.30
2017-09-09T22:00:38.390Z,4.17
2017-09-09T22:03:06.739Z,4.60
2017-09-09T22:05:35.088Z,4.20
2017-09-09T22:08:03.430Z,5.30
2017-09-09T22:10:31.774Z,5.03
2017-09-09T22:13:00.147Z,5.80
2017-09-09T22:15:28.495Z,5.40
2017-09-09T22:17:56.844Z,5.63
2017-09-09T22:20:25.225Z,5.50
2017-09-09T22:22:53.555Z,6.37
2017-09-09T22:25:21.935Z,5.87
2017-09-09T22:27:50.321Z,6.80
2017-09-09T22:30:18.779Z,6.93
2017-09-09T22:32:47.120Z,7.80
2017-09-09T22:35:15.459Z,7.00
2017-09-09T22:37:43.814Z,8.30
2017-09-09T22:40:12.179Z,8.57
2017-09-09T22:42:40.514Z,11.00
2017-09-09T22:45:08.865Z,11.60
2017-09-09T22:47:37.220Z,11.37
2017-09-09T22:50:05.563Z,12.67
2017-09-09T22:52:33.921Z,13.63
2017-09-09T22:55:02.315Z,14.47
2017-09-09T22:57:30.663Z,13.77
2017-09-09T22:59:59.006Z,14.93
2017-09-09T23:02:27.359Z,14.33
2017-09-09T23:04:55.798Z,14.13
2017-09-09T23:07:24.166Z,14.50
2017-09-09T23:09:53.255Z,15.70
2017-09-09T23:12:21.618Z,16.13
2017-09-09T23:14:49.969Z,15.50
2017-09-09T23:17:18.312Z,17.10
2017-09-09T23:19:46.669Z,16.77
2017-09-09T23:22:15.063Z,15.77
2017-09-09T23:24:43.426Z,16.97
2017-09-09T23:27:11.786Z,15.53
2017-09-09T23:29:40.163Z,18.43
2017-09-09T23:32:08.534Z,16.60
2017-09-09T23:34:36.908Z,15.97
2017-09-09T23:37:05.278Z,15.83
2017-09-09T23:39:33.663Z,14.00
2017-09-09T23:42:02.042Z,15.90
2017-09-09T23:44:30.406Z,15.37
2017-09-09T23:46:58.783Z,13.90
2017-09-09T23:49:27.136Z,15.33
2017-09-09T23:51:55.475Z,15.00
2017-09-09T23:54:23.847Z,15.30
2017-09-09T23:56:52.192Z,14.77
2017-09-09T23:59:20.580Z,16.70
